Sugarhill, Georgia
Current Conditions -  °F | °C
As of 1:45 PM on Friday 21 Nov 2014 (Local Time) from KLZU Reporting Station
Clear Clear  
Wind Chill: 63°   Ceiling: Unl
Heat Index: 63°   Visibility: 10mi
Dew Point: 28°   Wind: 6mph
Humidity: 27%   Direction: 310°NW
Pressure: 30.35"   Gusts: NA
Location:  34.1183°N, 84.0234°W
Report Text: KLZU 211845Z 31005KT 10SM CLR 17/M02 A3035 RMK ATIS F RWY 25 JW
Loading
Personal Weather Stations






























Interactive Weather Map New forecast layout! Learn more

10-Day Weather Forecast

Advertisements
Track Severe Weather on mobile